EWG2RH EDDK-LDZA
Flight info
| Callsign | EWG2RH |
|---|---|
| Flight time | 1h 19m |
| Altitude | 37000 |
| Route | KUMIK1R KUMIK L603 TESGA DCT ESATI DCT OSBIT DCT TENLO DCT LAMSI DCT LNZ DCT EPOLA DCT GOLVA DCT MIRSO DCT PETOV |
| Aircraft | A319/M-SDE3FGHIRWY/LB1 |
Departure
| Time | 2026-04-21 17:20 |
|---|---|
| Airport | Cologne Bonn Airport (EDDK) |
Arrival
| Time | 2026-04-21 18:39 |
|---|---|
| Airport | Zagreb Franjo Tuđman International Airport (LDZA) |
| Time | Latitude | Longitude | Altitude | Speed | Heading |
|---|---|---|---|---|---|
| 2026-04-21 16:44 | 50.87804 | 7.12416 | 232 ft | 0 kts | 288° |
| 2026-04-21 17:02 | 50.87801 | 7.12430 | 232 ft | 4 kts | 288° |
| 2026-04-21 17:02 | 50.87793 | 7.12471 | 234 ft | 4 kts | 288° |
| 2026-04-21 17:02 | 50.87783 | 7.12510 | 233 ft | 4 kts | 301° |
| 2026-04-21 17:03 | 50.87767 | 7.12540 | 234 ft | 4 kts | 340° |
| 2026-04-21 17:03 | 50.87753 | 7.12543 | 232 ft | 0 kts | 18° |
| 2026-04-21 17:06 | 50.87763 | 7.12563 | 232 ft | 4 kts | 69° |
| 2026-04-21 17:06 | 50.87768 | 7.12632 | 232 ft | 8 kts | 78° |
| 2026-04-21 17:06 | 50.87745 | 7.12732 | 232 ft | 13 kts | 138° |
| 2026-04-21 17:06 | 50.87669 | 7.12843 | 232 ft | 17 kts | 137° |
| 2026-04-21 17:07 | 50.87577 | 7.12974 | 232 ft | 18 kts | 137° |
| 2026-04-21 17:07 | 50.87489 | 7.13103 | 232 ft | 17 kts | 138° |
| 2026-04-21 17:07 | 50.87403 | 7.13226 | 232 ft | 16 kts | 138° |
| 2026-04-21 17:07 | 50.87354 | 7.13377 | 234 ft | 15 kts | 99° |
| 2026-04-21 17:08 | 50.87309 | 7.13520 | 234 ft | 14 kts | 137° |
| 2026-04-21 17:08 | 50.87245 | 7.13613 | 236 ft | 11 kts | 138° |
| 2026-04-21 17:08 | 50.87190 | 7.13691 | 238 ft | 11 kts | 137° |
| 2026-04-21 17:08 | 50.87118 | 7.13790 | 241 ft | 17 kts | 142° |
| 2026-04-21 17:09 | 50.86988 | 7.13985 | 248 ft | 0 kts | 138° |
| 2026-04-21 17:15 | 50.86979 | 7.13998 | 249 ft | 6 kts | 137° |
| 2026-04-21 17:15 | 50.86932 | 7.14064 | 254 ft | 9 kts | 138° |
| 2026-04-21 17:15 | 50.86893 | 7.14120 | 255 ft | 8 kts | 137° |
| 2026-04-21 17:16 | 50.86847 | 7.14185 | 255 ft | 10 kts | 138° |
| 2026-04-21 17:16 | 50.86792 | 7.14266 | 257 ft | 11 kts | 137° |
| 2026-04-21 17:16 | 50.86743 | 7.14339 | 260 ft | 9 kts | 137° |
| 2026-04-21 17:16 | 50.86697 | 7.14405 | 263 ft | 10 kts | 137° |
| 2026-04-21 17:17 | 50.86633 | 7.14476 | 263 ft | 13 kts | 156° |
| 2026-04-21 17:17 | 50.86543 | 7.14444 | 264 ft | 13 kts | 189° |
| 2026-04-21 17:17 | 50.86474 | 7.14512 | 268 ft | 11 kts | 138° |
| 2026-04-21 17:17 | 50.86418 | 7.14592 | 271 ft | 10 kts | 137° |
| 2026-04-21 17:18 | 50.86366 | 7.14668 | 274 ft | 12 kts | 136° |
| 2026-04-21 17:18 | 50.86296 | 7.14771 | 278 ft | 16 kts | 139° |
| 2026-04-21 17:18 | 50.86204 | 7.14904 | 283 ft | 20 kts | 137° |
| 2026-04-21 17:18 | 50.86094 | 7.15063 | 288 ft | 22 kts | 137° |
| 2026-04-21 17:19 | 50.86045 | 7.15249 | 290 ft | 17 kts | 70° |
| 2026-04-21 17:19 | 50.86149 | 7.15358 | 290 ft | 21 kts | 353° |
| 2026-04-21 17:19 | 50.86290 | 7.15312 | 289 ft | 16 kts | 348° |
| 2026-04-21 17:19 | 50.86396 | 7.15301 | 288 ft | 19 kts | 325° |
| 2026-04-21 17:20 | 50.86643 | 7.14945 | 273 ft | 85 kts | 317° |
| 2026-04-21 17:20 | 50.87244 | 7.14075 | 246 ft | 148 kts | 318° |
| 2026-04-21 17:20 | 50.88036 | 7.12948 | 729 ft | 153 kts | 320° |
| 2026-04-21 17:20 | 50.88822 | 7.11807 | 1403 ft | 152 kts | 322° |
| 2026-04-21 17:21 | 50.89776 | 7.11083 | 1640 ft | 162 kts | 4° |
| 2026-04-21 17:21 | 50.90886 | 7.11601 | 1944 ft | 176 kts | 33° |
| 2026-04-21 17:21 | 50.92004 | 7.12611 | 2309 ft | 194 kts | 31° |
| 2026-04-21 17:21 | 50.93184 | 7.13713 | 2884 ft | 199 kts | 42° |
| 2026-04-21 17:22 | 50.93781 | 7.14845 | 3198 ft | 210 kts | 59° |
| 2026-04-21 17:22 | 50.94744 | 7.17804 | 3751 ft | 240 kts | 64° |
| 2026-04-21 17:22 | 50.95501 | 7.20202 | 4138 ft | 245 kts | 64° |
| 2026-04-21 17:22 | 50.96268 | 7.22638 | 4408 ft | 247 kts | 64° |
| 2026-04-21 17:23 | 50.97039 | 7.25088 | 4874 ft | 250 kts | 64° |
| 2026-04-21 17:23 | 50.97821 | 7.27571 | 5857 ft | 252 kts | 64° |
| 2026-04-21 17:23 | 50.98610 | 7.30077 | 6785 ft | 257 kts | 64° |
| 2026-04-21 17:23 | 50.99418 | 7.32637 | 7672 ft | 261 kts | 64° |
| 2026-04-21 17:24 | 51.00136 | 7.35304 | 8558 ft | 266 kts | 78° |
| 2026-04-21 17:24 | 51.00011 | 7.38227 | 9408 ft | 274 kts | 109° |
| 2026-04-21 17:24 | 50.98978 | 7.40806 | 10268 ft | 281 kts | 124° |
| 2026-04-21 17:24 | 50.97966 | 7.43533 | 10691 ft | 297 kts | 111° |
| 2026-04-21 17:25 | 50.97240 | 7.46725 | 10981 ft | 316 kts | 105° |
| 2026-04-21 17:25 | 50.96626 | 7.50123 | 11625 ft | 323 kts | 103° |
| 2026-04-21 17:25 | 50.96012 | 7.53567 | 12367 ft | 327 kts | 104° |
| 2026-04-21 17:25 | 50.95349 | 7.57028 | 12781 ft | 328 kts | 105° |
| 2026-04-21 17:26 | 50.94629 | 7.60471 | 13184 ft | 330 kts | 107° |
| 2026-04-21 17:26 | 50.93860 | 7.63924 | 13505 ft | 332 kts | 108° |
| 2026-04-21 17:26 | 50.93075 | 7.67321 | 13981 ft | 335 kts | 108° |
| 2026-04-21 17:26 | 50.92248 | 7.70839 | 14630 ft | 337 kts | 108° |
| 2026-04-21 17:27 | 50.91432 | 7.74289 | 15267 ft | 340 kts | 108° |
| 2026-04-21 17:27 | 50.90599 | 7.77820 | 15918 ft | 344 kts | 108° |
| 2026-04-21 17:27 | 50.89762 | 7.81392 | 16555 ft | 347 kts | 108° |
| 2026-04-21 17:27 | 50.88919 | 7.84994 | 17202 ft | 351 kts | 108° |
| 2026-04-21 17:28 | 50.88067 | 7.88633 | 17844 ft | 354 kts | 108° |
| 2026-04-21 17:28 | 50.87205 | 7.92304 | 18488 ft | 358 kts | 108° |
| 2026-04-21 17:28 | 50.86331 | 7.96012 | 19053 ft | 361 kts | 108° |
| 2026-04-21 17:28 | 50.85448 | 7.99748 | 19644 ft | 364 kts | 108° |
| 2026-04-21 17:29 | 50.84557 | 8.03508 | 20232 ft | 367 kts | 108° |
| 2026-04-21 17:29 | 50.83577 | 8.07257 | 20816 ft | 372 kts | 114° |
| 2026-04-21 17:29 | 50.82219 | 8.10768 | 21391 ft | 376 kts | 121° |
| 2026-04-21 17:29 | 50.80760 | 8.14220 | 21967 ft | 379 kts | 121° |
| 2026-04-21 17:30 | 50.79289 | 8.17695 | 22537 ft | 382 kts | 121° |
| 2026-04-21 17:30 | 50.77810 | 8.21192 | 23096 ft | 384 kts | 120° |
| 2026-04-21 17:30 | 50.76321 | 8.24715 | 23640 ft | 387 kts | 120° |
| 2026-04-21 17:30 | 50.74822 | 8.28256 | 24105 ft | 389 kts | 120° |
| 2026-04-21 17:31 | 50.73310 | 8.31827 | 24537 ft | 392 kts | 120° |
| 2026-04-21 17:31 | 50.71789 | 8.35415 | 24960 ft | 395 kts | 121° |
| 2026-04-21 17:31 | 50.70067 | 8.38834 | 25364 ft | 402 kts | 130° |
| 2026-04-21 17:31 | 50.67966 | 8.41793 | 25771 ft | 408 kts | 140° |
| 2026-04-21 17:32 | 50.66389 | 8.43440 | 26062 ft | 413 kts | 146° |
| 2026-04-21 17:32 | 50.62991 | 8.46320 | 26653 ft | 416 kts | 148° |
| 2026-04-21 17:32 | 50.60423 | 8.48480 | 27063 ft | 419 kts | 148° |
| 2026-04-21 17:32 | 50.57847 | 8.50653 | 27469 ft | 422 kts | 148° |
| 2026-04-21 17:33 | 50.55253 | 8.52843 | 27840 ft | 426 kts | 149° |
| 2026-04-21 17:33 | 50.52629 | 8.55057 | 28141 ft | 431 kts | 149° |
| 2026-04-21 17:33 | 50.50011 | 8.57262 | 28493 ft | 434 kts | 149° |
| 2026-04-21 17:33 | 50.47338 | 8.59509 | 28864 ft | 437 kts | 149° |
| 2026-04-21 17:34 | 50.44735 | 8.61996 | 29220 ft | 437 kts | 141° |
| 2026-04-21 17:34 | 50.42400 | 8.65035 | 29573 ft | 437 kts | 133° |
| 2026-04-21 17:34 | 50.40211 | 8.68357 | 29927 ft | 439 kts | 133° |
| 2026-04-21 17:34 | 50.38005 | 8.71692 | 30265 ft | 442 kts | 133° |
| 2026-04-21 17:35 | 50.35784 | 8.75037 | 30534 ft | 445 kts | 134° |
| 2026-04-21 17:35 | 50.33543 | 8.78398 | 30780 ft | 448 kts | 134° |
| 2026-04-21 17:35 | 50.31289 | 8.81774 | 31031 ft | 450 kts | 134° |
| 2026-04-21 17:35 | 50.29024 | 8.85222 | 31177 ft | 455 kts | 130° |
| 2026-04-21 17:36 | 50.27185 | 8.89238 | 31369 ft | 455 kts | 116° |
| 2026-04-21 17:36 | 50.25703 | 8.93628 | 31597 ft | 457 kts | 115° |
| 2026-04-21 17:36 | 50.24234 | 8.98038 | 31937 ft | 458 kts | 115° |
| 2026-04-21 17:36 | 50.22769 | 9.02456 | 32269 ft | 458 kts | 115° |
| 2026-04-21 17:37 | 50.21303 | 9.06874 | 32593 ft | 459 kts | 115° |
| 2026-04-21 17:37 | 50.19851 | 9.11241 | 32911 ft | 459 kts | 115° |
| 2026-04-21 17:37 | 50.18854 | 9.14230 | 33124 ft | 460 kts | 115° |
| 2026-04-21 17:37 | 50.16884 | 9.20104 | 33355 ft | 462 kts | 116° |
| 2026-04-21 17:38 | 50.15389 | 9.24527 | 33753 ft | 461 kts | 116° |
| 2026-04-21 17:38 | 50.13892 | 9.28945 | 34096 ft | 461 kts | 116° |
| 2026-04-21 17:38 | 50.12398 | 9.33360 | 34397 ft | 461 kts | 116° |
| 2026-04-21 17:38 | 50.10903 | 9.37781 | 34672 ft | 462 kts | 116° |
| 2026-04-21 17:39 | 50.09407 | 9.42205 | 34949 ft | 462 kts | 116° |
| 2026-04-21 17:39 | 50.07903 | 9.46644 | 35205 ft | 463 kts | 116° |
| 2026-04-21 17:39 | 50.06400 | 9.51071 | 35464 ft | 463 kts | 116° |
| 2026-04-21 17:39 | 50.04889 | 9.55513 | 35719 ft | 464 kts | 116° |
| 2026-04-21 17:40 | 50.03383 | 9.59929 | 35970 ft | 464 kts | 116° |
| 2026-04-21 17:40 | 50.01856 | 9.64399 | 36231 ft | 465 kts | 116° |
| 2026-04-21 17:40 | 50.00335 | 9.68842 | 36406 ft | 467 kts | 116° |
| 2026-04-21 17:40 | 49.98804 | 9.73304 | 36609 ft | 468 kts | 116° |
| 2026-04-21 17:41 | 49.97268 | 9.77770 | 36834 ft | 469 kts | 116° |
| 2026-04-21 17:41 | 49.95729 | 9.82241 | 37063 ft | 469 kts | 116° |
| 2026-04-21 17:41 | 49.94188 | 9.86717 | 37208 ft | 470 kts | 116° |
| 2026-04-21 17:41 | 49.92641 | 9.91200 | 37231 ft | 470 kts | 116° |
| 2026-04-21 17:42 | 49.89566 | 10.00069 | 37225 ft | 469 kts | 117° |
| 2026-04-21 17:42 | 49.86471 | 10.08961 | 37231 ft | 468 kts | 117° |
| 2026-04-21 17:43 | 49.83383 | 10.17834 | 37234 ft | 468 kts | 117° |
| 2026-04-21 17:43 | 49.80280 | 10.26704 | 37173 ft | 469 kts | 117° |
| 2026-04-21 17:44 | 49.77169 | 10.35557 | 37233 ft | 470 kts | 117° |
| 2026-04-21 17:44 | 49.74043 | 10.44430 | 37251 ft | 469 kts | 117° |
| 2026-04-21 17:45 | 49.70918 | 10.53275 | 37226 ft | 469 kts | 117° |
| 2026-04-21 17:45 | 49.67784 | 10.62115 | 37211 ft | 469 kts | 117° |
| 2026-04-21 17:46 | 49.65173 | 10.69457 | 37203 ft | 470 kts | 117° |
| 2026-04-21 17:46 | 49.61493 | 10.79727 | 37196 ft | 470 kts | 117° |
| 2026-04-21 17:47 | 49.58322 | 10.88549 | 37199 ft | 470 kts | 117° |
| 2026-04-21 17:47 | 49.55666 | 10.95942 | 37193 ft | 471 kts | 117° |
| 2026-04-21 17:48 | 49.52498 | 11.04766 | 37193 ft | 471 kts | 117° |
| 2026-04-21 17:48 | 49.49452 | 11.13685 | 37196 ft | 471 kts | 115° |
| 2026-04-21 17:49 | 49.46578 | 11.22654 | 37200 ft | 471 kts | 114° |
| 2026-04-21 17:49 | 49.43681 | 11.31674 | 37223 ft | 471 kts | 115° |
| 2026-04-21 17:50 | 49.40723 | 11.40643 | 37219 ft | 471 kts | 116° |
| 2026-04-21 17:50 | 49.37729 | 11.49594 | 37196 ft | 472 kts | 116° |
| 2026-04-21 17:51 | 49.34731 | 11.58554 | 37199 ft | 472 kts | 116° |
| 2026-04-21 17:51 | 49.31734 | 11.67510 | 37212 ft | 472 kts | 116° |
| 2026-04-21 17:52 | 49.28727 | 11.76460 | 37204 ft | 472 kts | 116° |
| 2026-04-21 17:52 | 49.25717 | 11.85390 | 37206 ft | 472 kts | 116° |
| 2026-04-21 17:53 | 49.22700 | 11.94318 | 37195 ft | 472 kts | 116° |
| 2026-04-21 17:53 | 49.19677 | 12.03229 | 37197 ft | 472 kts | 116° |
| 2026-04-21 17:54 | 49.16668 | 12.12060 | 37214 ft | 472 kts | 116° |
| 2026-04-21 17:54 | 49.13627 | 12.20943 | 37205 ft | 472 kts | 116° |
| 2026-04-21 17:55 | 49.10580 | 12.29817 | 37200 ft | 472 kts | 116° |
| 2026-04-21 17:55 | 49.07532 | 12.38687 | 37182 ft | 472 kts | 116° |
| 2026-04-21 17:56 | 49.04479 | 12.47564 | 37201 ft | 473 kts | 116° |
| 2026-04-21 17:56 | 49.01402 | 12.56436 | 37199 ft | 474 kts | 117° |
| 2026-04-21 17:57 | 48.98317 | 12.65304 | 37199 ft | 474 kts | 117° |
| 2026-04-21 17:57 | 48.95228 | 12.74176 | 37210 ft | 475 kts | 117° |
| 2026-04-21 17:58 | 48.92145 | 12.82992 | 37213 ft | 475 kts | 117° |
| 2026-04-21 17:58 | 48.89026 | 12.91841 | 37218 ft | 475 kts | 117° |
| 2026-04-21 17:59 | 48.85909 | 13.00679 | 37215 ft | 475 kts | 117° |
| 2026-04-21 17:59 | 48.82788 | 13.09512 | 37214 ft | 475 kts | 117° |
| 2026-04-21 18:00 | 48.79660 | 13.18340 | 37222 ft | 475 kts | 117° |
| 2026-04-21 18:00 | 48.76521 | 13.27164 | 37236 ft | 475 kts | 117° |
| 2026-04-21 18:01 | 48.73371 | 13.35962 | 37212 ft | 475 kts | 117° |
| 2026-04-21 18:01 | 48.70221 | 13.44761 | 37205 ft | 476 kts | 117° |
| 2026-04-21 18:02 | 48.67064 | 13.53507 | 37216 ft | 476 kts | 120° |
| 2026-04-21 18:02 | 48.62908 | 13.61285 | 37225 ft | 477 kts | 139° |
| 2026-04-21 18:03 | 48.57784 | 13.67665 | 37226 ft | 477 kts | 141° |
| 2026-04-21 18:03 | 48.52645 | 13.74000 | 37224 ft | 477 kts | 141° |
| 2026-04-21 18:04 | 48.47509 | 13.80339 | 37221 ft | 477 kts | 141° |
| 2026-04-21 18:04 | 48.42365 | 13.86667 | 37203 ft | 478 kts | 141° |
| 2026-04-21 18:05 | 48.37209 | 13.92981 | 37215 ft | 478 kts | 141° |
| 2026-04-21 18:05 | 48.32043 | 13.99283 | 37214 ft | 478 kts | 141° |
| 2026-04-21 18:06 | 48.26904 | 14.05534 | 37218 ft | 478 kts | 141° |
| 2026-04-21 18:06 | 48.21716 | 14.11790 | 37220 ft | 478 kts | 143° |
| 2026-04-21 18:07 | 48.16366 | 14.17718 | 37204 ft | 478 kts | 145° |
| 2026-04-21 18:07 | 48.10924 | 14.23454 | 37213 ft | 479 kts | 146° |
| 2026-04-21 18:08 | 48.05494 | 14.29223 | 37208 ft | 479 kts | 145° |
| 2026-04-21 18:08 | 48.00091 | 14.35060 | 37203 ft | 479 kts | 145° |
| 2026-04-21 18:09 | 47.94692 | 14.40900 | 37198 ft | 479 kts | 145° |
| 2026-04-21 18:09 | 47.89314 | 14.46684 | 37193 ft | 479 kts | 145° |
| 2026-04-21 18:10 | 47.83899 | 14.52477 | 37204 ft | 479 kts | 145° |
| 2026-04-21 18:10 | 47.78477 | 14.58267 | 37194 ft | 479 kts | 145° |
| 2026-04-21 18:11 | 47.73058 | 14.64029 | 37191 ft | 479 kts | 145° |
| 2026-04-21 18:11 | 47.67637 | 14.69786 | 37172 ft | 479 kts | 146° |
| 2026-04-21 18:12 | 47.62209 | 14.75528 | 37175 ft | 479 kts | 146° |
| 2026-04-21 18:12 | 47.56781 | 14.81265 | 37177 ft | 480 kts | 146° |
| 2026-04-21 18:13 | 47.51345 | 14.86874 | 37153 ft | 479 kts | 151° |
| 2026-04-21 18:13 | 47.45245 | 14.90605 | 37125 ft | 474 kts | 167° |
| 2026-04-21 18:14 | 47.35713 | 14.94544 | 37109 ft | 475 kts | 167° |
| 2026-04-21 18:15 | 47.29341 | 14.97172 | 37100 ft | 475 kts | 167° |
| 2026-04-21 18:15 | 47.22969 | 14.99797 | 36944 ft | 475 kts | 167° |
| 2026-04-21 18:15 | 47.19785 | 15.01108 | 36391 ft | 476 kts | 167° |
| 2026-04-21 18:16 | 47.16592 | 15.02419 | 35829 ft | 476 kts | 167° |
| 2026-04-21 18:16 | 47.13400 | 15.03726 | 35278 ft | 476 kts | 167° |
| 2026-04-21 18:16 | 47.10214 | 15.05032 | 34707 ft | 476 kts | 168° |
| 2026-04-21 18:16 | 47.07021 | 15.06336 | 34089 ft | 476 kts | 168° |
| 2026-04-21 18:17 | 47.03834 | 15.07638 | 33491 ft | 474 kts | 168° |
| 2026-04-21 18:17 | 47.00678 | 15.08932 | 32984 ft | 469 kts | 168° |
| 2026-04-21 18:17 | 46.97549 | 15.10214 | 32467 ft | 466 kts | 168° |
| 2026-04-21 18:17 | 46.94479 | 15.11465 | 31997 ft | 462 kts | 168° |
| 2026-04-21 18:18 | 46.91395 | 15.12717 | 31540 ft | 457 kts | 168° |
| 2026-04-21 18:18 | 46.88339 | 15.13953 | 31085 ft | 453 kts | 168° |
| 2026-04-21 18:18 | 46.85312 | 15.15179 | 30630 ft | 449 kts | 168° |
| 2026-04-21 18:18 | 46.82308 | 15.16391 | 30185 ft | 445 kts | 168° |
| 2026-04-21 18:19 | 46.79337 | 15.17586 | 29646 ft | 441 kts | 168° |
| 2026-04-21 18:19 | 46.76388 | 15.18773 | 29078 ft | 438 kts | 169° |
| 2026-04-21 18:19 | 46.73465 | 15.19950 | 28574 ft | 434 kts | 168° |
| 2026-04-21 18:19 | 46.70573 | 15.21114 | 28116 ft | 428 kts | 168° |
| 2026-04-21 18:20 | 46.67697 | 15.22274 | 27397 ft | 430 kts | 168° |
| 2026-04-21 18:20 | 46.64819 | 15.23433 | 26830 ft | 427 kts | 168° |
| 2026-04-21 18:20 | 46.61969 | 15.24579 | 26321 ft | 423 kts | 168° |
| 2026-04-21 18:20 | 46.59141 | 15.25715 | 25824 ft | 419 kts | 167° |
| 2026-04-21 18:21 | 46.56378 | 15.26825 | 25348 ft | 416 kts | 168° |
| 2026-04-21 18:21 | 46.53597 | 15.27940 | 24846 ft | 413 kts | 167° |
| 2026-04-21 18:21 | 46.50837 | 15.29045 | 24388 ft | 410 kts | 167° |
| 2026-04-21 18:21 | 46.48100 | 15.30136 | 23975 ft | 406 kts | 167° |
| 2026-04-21 18:22 | 46.45385 | 15.31214 | 23558 ft | 403 kts | 167° |
| 2026-04-21 18:22 | 46.42695 | 15.32282 | 23069 ft | 399 kts | 167° |
| 2026-04-21 18:22 | 46.40023 | 15.33342 | 22558 ft | 396 kts | 167° |
| 2026-04-21 18:22 | 46.37375 | 15.34393 | 22056 ft | 393 kts | 167° |
| 2026-04-21 18:23 | 46.34745 | 15.35439 | 21550 ft | 391 kts | 167° |
| 2026-04-21 18:23 | 46.32129 | 15.36482 | 21003 ft | 389 kts | 167° |
| 2026-04-21 18:23 | 46.29528 | 15.37518 | 20515 ft | 387 kts | 167° |
| 2026-04-21 18:23 | 46.26927 | 15.38551 | 19803 ft | 390 kts | 167° |
| 2026-04-21 18:24 | 46.24312 | 15.39588 | 19237 ft | 389 kts | 167° |
| 2026-04-21 18:24 | 46.21699 | 15.40618 | 18883 ft | 389 kts | 167° |
| 2026-04-21 18:24 | 46.19091 | 15.41644 | 18479 ft | 384 kts | 167° |
| 2026-04-21 18:24 | 46.16544 | 15.42648 | 18099 ft | 376 kts | 167° |
| 2026-04-21 18:25 | 46.14036 | 15.43637 | 17446 ft | 371 kts | 167° |
| 2026-04-21 18:25 | 46.11560 | 15.44611 | 16783 ft | 367 kts | 167° |
| 2026-04-21 18:25 | 46.09141 | 15.45563 | 16145 ft | 363 kts | 167° |
| 2026-04-21 18:25 | 46.06716 | 15.46517 | 15532 ft | 359 kts | 167° |
| 2026-04-21 18:26 | 46.04318 | 15.47458 | 14904 ft | 355 kts | 166° |
| 2026-04-21 18:26 | 46.01949 | 15.48388 | 14286 ft | 351 kts | 166° |
| 2026-04-21 18:26 | 45.99603 | 15.49310 | 13657 ft | 348 kts | 166° |
| 2026-04-21 18:26 | 45.97296 | 15.50219 | 13145 ft | 337 kts | 166° |
| 2026-04-21 18:27 | 45.95062 | 15.51100 | 12550 ft | 330 kts | 166° |
| 2026-04-21 18:27 | 45.92865 | 15.51960 | 11883 ft | 325 kts | 165° |
| 2026-04-21 18:27 | 45.90703 | 15.52802 | 11426 ft | 315 kts | 165° |
| 2026-04-21 18:27 | 45.88632 | 15.53609 | 11057 ft | 304 kts | 165° |
| 2026-04-21 18:28 | 45.86615 | 15.54397 | 10578 ft | 298 kts | 164° |
| 2026-04-21 18:28 | 45.84623 | 15.55175 | 10035 ft | 296 kts | 164° |
| 2026-04-21 18:28 | 45.82637 | 15.55949 | 9432 ft | 295 kts | 163° |
| 2026-04-21 18:28 | 45.80663 | 15.56720 | 8861 ft | 292 kts | 163° |
| 2026-04-21 18:29 | 45.78711 | 15.57484 | 8327 ft | 289 kts | 162° |
| 2026-04-21 18:29 | 45.76776 | 15.58239 | 7961 ft | 287 kts | 162° |
| 2026-04-21 18:29 | 45.74858 | 15.58982 | 7654 ft | 284 kts | 162° |
| 2026-04-21 18:29 | 45.72953 | 15.59718 | 7313 ft | 283 kts | 163° |
| 2026-04-21 18:30 | 45.71086 | 15.60440 | 6990 ft | 280 kts | 162° |
| 2026-04-21 18:30 | 45.69208 | 15.61164 | 6661 ft | 278 kts | 162° |
| 2026-04-21 18:30 | 45.67348 | 15.61883 | 6329 ft | 276 kts | 162° |
| 2026-04-21 18:30 | 45.65499 | 15.62599 | 6013 ft | 274 kts | 161° |
| 2026-04-21 18:31 | 45.63763 | 15.63654 | 5676 ft | 269 kts | 146° |
| 2026-04-21 18:31 | 45.62290 | 15.65243 | 5350 ft | 264 kts | 133° |
| 2026-04-21 18:31 | 45.60996 | 15.67079 | 5047 ft | 261 kts | 132° |
| 2026-04-21 18:31 | 45.59693 | 15.68869 | 4827 ft | 256 kts | 133° |
| 2026-04-21 18:32 | 45.58413 | 15.70577 | 4680 ft | 248 kts | 134° |
| 2026-04-21 18:32 | 45.57218 | 15.72296 | 4499 ft | 239 kts | 124° |
| 2026-04-21 18:32 | 45.56460 | 15.74318 | 4364 ft | 226 kts | 105° |
| 2026-04-21 18:32 | 45.56195 | 15.76458 | 4219 ft | 213 kts | 88° |
| 2026-04-21 18:33 | 45.56375 | 15.78484 | 4093 ft | 199 kts | 72° |
| 2026-04-21 18:33 | 45.56890 | 15.80239 | 3991 ft | 185 kts | 58° |
| 2026-04-21 18:33 | 45.57644 | 15.81692 | 4002 ft | 181 kts | 46° |
| 2026-04-21 18:33 | 45.58519 | 15.82988 | 4000 ft | 183 kts | 46° |
| 2026-04-21 18:34 | 45.59393 | 15.84319 | 4017 ft | 185 kts | 46° |
| 2026-04-21 18:34 | 45.60263 | 15.85633 | 3997 ft | 184 kts | 46° |
| 2026-04-21 18:34 | 45.61144 | 15.86965 | 3861 ft | 183 kts | 46° |
| 2026-04-21 18:34 | 45.62010 | 15.88273 | 3639 ft | 179 kts | 46° |
| 2026-04-21 18:35 | 45.62585 | 15.89144 | 3482 ft | 179 kts | 46° |
| 2026-04-21 18:35 | 45.63727 | 15.90865 | 3149 ft | 181 kts | 46° |
| 2026-04-21 18:35 | 45.64574 | 15.92147 | 2958 ft | 173 kts | 46° |
| 2026-04-21 18:35 | 45.65394 | 15.93386 | 2674 ft | 170 kts | 46° |
| 2026-04-21 18:36 | 45.66191 | 15.94596 | 2423 ft | 161 kts | 46° |
| 2026-04-21 18:36 | 45.66930 | 15.95707 | 2198 ft | 148 kts | 45° |
| 2026-04-21 18:36 | 45.67624 | 15.96754 | 2015 ft | 141 kts | 45° |
| 2026-04-21 18:36 | 45.68278 | 15.97746 | 1813 ft | 134 kts | 45° |
| 2026-04-21 18:37 | 45.68908 | 15.98702 | 1635 ft | 132 kts | 46° |
| 2026-04-21 18:37 | 45.69538 | 15.99663 | 1465 ft | 134 kts | 46° |
| 2026-04-21 18:37 | 45.70182 | 16.00634 | 1269 ft | 134 kts | 45° |
| 2026-04-21 18:37 | 45.70818 | 16.01601 | 1065 ft | 134 kts | 46° |
| 2026-04-21 18:38 | 45.71464 | 16.02589 | 910 ft | 138 kts | 45° |
| 2026-04-21 18:38 | 45.72124 | 16.03586 | 696 ft | 136 kts | 44° |
| 2026-04-21 18:38 | 45.72767 | 16.04557 | 518 ft | 133 kts | 44° |
| 2026-04-21 18:38 | 45.73183 | 16.05195 | 397 ft | 132 kts | 45° |
| 2026-04-21 18:39 | 45.73758 | 16.06064 | 369 ft | 101 kts | 46° |
| 2026-04-21 18:39 | 45.74123 | 16.06615 | 358 ft | 54 kts | 47° |
| 2026-04-21 18:39 | 45.74392 | 16.07026 | 365 ft | 59 kts | 46° |
| 2026-04-21 18:39 | 45.74651 | 16.07419 | 359 ft | 33 kts | 47° |
| 2026-04-21 18:40 | 45.74663 | 16.07528 | 359 ft | 13 kts | 136° |
| 2026-04-21 18:40 | 45.74587 | 16.07630 | 352 ft | 15 kts | 136° |
| 2026-04-21 18:40 | 45.74540 | 16.07642 | 355 ft | 7 kts | 227° |
| 2026-04-21 18:40 | 45.74508 | 16.07591 | 354 ft | 7 kts | 229° |
| 2026-04-21 18:41 | 45.74473 | 16.07535 | 358 ft | 8 kts | 227° |
| 2026-04-21 18:41 | 45.74421 | 16.07463 | 355 ft | 13 kts | 223° |
| 2026-04-21 18:41 | 45.74359 | 16.07371 | 357 ft | 13 kts | 227° |
| 2026-04-21 18:41 | 45.74295 | 16.07272 | 362 ft | 15 kts | 227° |
| 2026-04-21 18:42 | 45.74204 | 16.07221 | 358 ft | 17 kts | 142° |
| 2026-04-21 18:42 | 45.74104 | 16.07348 | 357 ft | 21 kts | 138° |
| 2026-04-21 18:42 | 45.74077 | 16.07488 | 360 ft | 16 kts | 49° |
| 2026-04-21 18:42 | 45.74161 | 16.07618 | 359 ft | 18 kts | 46° |
| 2026-04-21 18:43 | 45.74238 | 16.07737 | 357 ft | 11 kts | 47° |
| 2026-04-21 18:43 | 45.74249 | 16.07815 | 362 ft | 8 kts | 133° |
| 2026-04-21 18:43 | 45.74235 | 16.07835 | 361 ft | 0 kts | 134° |
| 2026-04-21 18:43 | 45.74234 | 16.07837 | 361 ft | 2 kts | 134° |
| 2026-04-21 18:44 | 45.74221 | 16.07854 | 360 ft | 1 kts | 137° |
| 2026-04-21 18:44 | 45.74215 | 16.07861 | 360 ft | 2 kts | 138° |
| 2026-04-21 18:44 | 45.74214 | 16.07863 | 360 ft | 0 kts | 139° |
| 2026-04-21 18:44 | 45.74211 | 16.07867 | 361 ft | 1 kts | 138° |